createdAt,value
2019-05-19T00:02:40.468Z,35.90
2019-05-19T00:05:19.972Z,35.80
2019-05-19T00:08:01.511Z,36.10
2019-05-19T00:10:43.083Z,36.20
2019-05-19T00:13:24.034Z,35.90
2019-05-19T00:16:05.399Z,35.70
2019-05-19T00:18:46.160Z,36.10
2019-05-19T00:21:27.542Z,37.00
2019-05-19T00:24:09.029Z,37.30
2019-05-19T00:26:50.159Z,37.80
2019-05-19T00:29:29.851Z,38.20
2019-05-19T00:32:32.792Z,38.10
2019-05-19T00:35:09.033Z,38.40
2019-05-19T00:37:57.691Z,38.20
2019-05-19T00:40:46.320Z,38.10
2019-05-19T00:43:35.173Z,38.40
2019-05-19T00:46:36.216Z,39.70
2019-05-19T00:49:14.940Z,38.40
2019-05-19T00:52:03.665Z,38.30
2019-05-19T00:54:44.915Z,38.50
2019-05-19T00:57:25.723Z,39.30
2019-05-19T01:00:06.579Z,39.80
2019-05-19T01:02:47.977Z,40.00
2019-05-19T01:05:29.566Z,40.00
2019-05-19T01:08:10.719Z,39.80
2019-05-19T01:10:51.631Z,40.30
2019-05-19T01:13:32.735Z,40.30
2019-05-19T01:16:13.507Z,40.10
2019-05-19T01:18:54.333Z,40.30
2019-05-19T01:21:36.103Z,40.10
2019-05-19T01:24:17.577Z,39.90
2019-05-19T01:26:58.770Z,39.80
2019-05-19T01:29:40.320Z,39.60
2019-05-19T01:32:21.912Z,39.70
2019-05-19T01:35:03.496Z,39.50
2019-05-19T01:37:45.096Z,39.70
2019-05-19T01:40:26.652Z,39.50
2019-05-19T01:43:08.248Z,40.20
2019-05-19T01:45:49.618Z,39.20
2019-05-19T01:48:30.500Z,39.30
2019-05-19T01:51:12.091Z,39.10
2019-05-19T01:53:53.260Z,39.40
2019-05-19T01:56:34.786Z,39.50
2019-05-19T01:59:16.197Z,39.50
2019-05-19T02:01:57.443Z,39.40
2019-05-19T02:04:38.690Z,39.30
2019-05-19T02:07:18.401Z,39.00
2019-05-19T02:10:07.362Z,38.70
2019-05-19T02:13:10.323Z,38.30
2019-05-19T02:15:46.805Z,38.80
2019-05-19T02:18:47.514Z,38.80
2019-05-19T02:21:26.271Z,38.90
2019-05-19T02:24:14.919Z,38.50
2019-05-19T02:27:17.819Z,39.00
2019-05-19T02:29:54.192Z,39.20
2019-05-19T02:38:47.735Z,39.80
2019-05-19T02:44:51.040Z,40.30
2019-05-19T02:51:28.281Z,40.30
2019-05-19T02:54:09.326Z,40.20
2019-05-19T02:56:50.350Z,40.50
2019-05-19T02:59:31.596Z,40.90
2019-05-19T03:02:14.196Z,41.30
2019-05-19T03:04:55.775Z,40.90
2019-05-19T03:07:36.941Z,41.20
2019-05-19T03:10:18.757Z,41.30
2019-05-19T03:13:00.322Z,41.40
2019-05-19T03:15:41.865Z,41.70
2019-05-19T03:18:23.425Z,42.10
2019-05-19T03:21:10.940Z,42.90
2019-05-19T03:23:46.187Z,42.50
2019-05-19T03:26:48.787Z,42.50
2019-05-19T03:32:56.465Z,42.30
2019-05-19T03:35:45.209Z,42.10
2019-05-19T03:38:33.895Z,42.20
2019-05-19T03:41:22.876Z,42.50
2019-05-19T03:44:22.993Z,42.80
2019-05-19T03:47:13.388Z,42.90
2019-05-19T03:49:52.206Z,42.90
2019-05-19T03:52:40.957Z,42.70
2019-05-19T03:55:22.194Z,42.70
2019-05-19T03:58:03.040Z,42.80
2019-05-19T04:00:43.900Z,42.70
2019-05-19T04:03:25.570Z,42.80
2019-05-19T04:06:06.327Z,42.60
2019-05-19T04:08:47.345Z,43.00
2019-05-19T04:11:28.864Z,43.10
2019-05-19T04:14:10.382Z,43.80
2019-05-19T04:16:52.109Z,43.20
2019-05-19T04:19:33.090Z,43.10
2019-05-19T04:22:14.525Z,43.00
2019-05-19T04:24:56.052Z,43.00
2019-05-19T04:27:37.682Z,43.10
2019-05-19T04:30:19.148Z,43.10
2019-05-19T04:33:00.697Z,43.00
2019-05-19T04:35:42.099Z,42.80
2019-05-19T04:38:23.505Z,42.80
2019-05-19T04:41:04.351Z,42.40
2019-05-19T04:43:45.802Z,42.30
2019-05-19T04:46:27.011Z,42.10
2019-05-19T04:49:07.786Z,42.10
2019-05-19T04:52:05.439Z,41.60
2019-05-19T04:54:32.307Z,42.90
2019-05-19T04:57:13.371Z,41.90
2019-05-19T04:59:54.886Z,41.40
2019-05-19T05:02:36.163Z,41.10
2019-05-19T05:05:17.665Z,40.90
2019-05-19T05:07:59.250Z,40.70
2019-05-19T05:10:40.934Z,40.30
2019-05-19T05:13:22.361Z,40.20
2019-05-19T05:16:03.669Z,39.80
2019-05-19T05:18:47.702Z,39.40
2019-05-19T05:21:27.066Z,38.70
2019-05-19T05:24:08.279Z,38.60
2019-05-19T05:26:50.054Z,37.50
2019-05-19T05:29:30.865Z,36.80
2019-05-19T05:32:11.795Z,36.30
2019-05-19T05:34:51.779Z,35.00
2019-05-19T05:37:40.505Z,34.90
2019-05-19T05:40:29.217Z,34.00
2019-05-19T05:46:40.866Z,32.70
2019-05-19T05:49:17.252Z,31.80
2019-05-19T05:52:05.967Z,31.10
2019-05-19T05:54:46.714Z,30.20
2019-05-19T05:57:28.473Z,29.50
2019-05-19T06:00:09.805Z,28.60
2019-05-19T06:02:51.517Z,28.20
2019-05-19T06:05:32.844Z,27.80
2019-05-19T06:08:14.423Z,27.10
2019-05-19T06:10:56.036Z,26.40
2019-05-19T06:13:36.795Z,25.70
2019-05-19T06:16:17.921Z,24.70
2019-05-19T06:18:58.611Z,24.00
2019-05-19T06:21:40.292Z,24.10
2019-05-19T06:24:21.662Z,24.00
2019-05-19T06:27:03.146Z,23.20
2019-05-19T06:29:44.346Z,23.00
2019-05-19T06:35:24.559Z,21.40
2019-05-19T06:38:05.275Z,21.50
2019-05-19T06:40:46.057Z,21.60
2019-05-19T06:43:27.584Z,21.10
2019-05-19T06:46:08.984Z,21.00
2019-05-19T06:48:50.359Z,21.30
2019-05-19T06:51:31.998Z,21.60
2019-05-19T06:54:13.651Z,21.50
2019-05-19T06:56:55.095Z,21.30
2019-05-19T06:59:36.609Z,20.80
2019-05-19T07:02:18.230Z,20.60
2019-05-19T07:04:58.105Z,20.00
2019-05-19T07:13:51.808Z,18.90
2019-05-19T07:16:54.405Z,19.20
2019-05-19T07:19:30.813Z,18.80
2019-05-19T07:22:19.416Z,18.40
2019-05-19T07:25:19.985Z,18.30
2019-05-19T07:30:54.137Z,18.40
2019-05-19T07:39:47.931Z,17.80
2019-05-19T07:42:24.384Z,18.00
2019-05-19T07:45:13.171Z,17.90
2019-05-19T07:48:01.883Z,17.90
2019-05-19T07:50:50.441Z,18.00
2019-05-19T07:53:50.934Z,18.10
2019-05-19T07:56:21.694Z,17.90
2019-05-19T07:59:03.148Z,17.30
2019-05-19T08:01:43.940Z,17.90
2019-05-19T08:04:25.116Z,18.20
2019-05-19T08:07:06.761Z,18.30
2019-05-19T08:09:48.260Z,18.80
2019-05-19T08:12:29.187Z,18.40
2019-05-19T08:15:10.700Z,18.50
2019-05-19T08:17:51.903Z,17.90
2019-05-19T08:20:33.546Z,17.80
2019-05-19T08:23:14.984Z,17.80
2019-05-19T08:25:56.530Z,17.60
2019-05-19T08:28:37.762Z,17.40
2019-05-19T08:31:18.941Z,17.00
2019-05-19T08:34:00.427Z,15.50
2019-05-19T08:36:41.719Z,15.00
2019-05-19T08:39:23.159Z,14.60
2019-05-19T08:42:03.968Z,14.80
2019-05-19T08:44:45.379Z,14.80
2019-05-19T08:47:26.777Z,14.90
2019-05-19T08:50:08.242Z,13.40
2019-05-19T08:52:49.630Z,12.80
2019-05-19T08:55:30.787Z,12.60
2019-05-19T08:58:12.092Z,12.30
2019-05-19T09:00:53.487Z,11.30
2019-05-19T09:03:34.458Z,10.10
2019-05-19T09:06:15.426Z,9.60
2019-05-19T09:08:56.977Z,9.40
2019-05-19T09:11:38.445Z,9.00
2019-05-19T09:14:19.156Z,8.00
2019-05-19T09:16:58.876Z,7.60
2019-05-19T09:25:50.630Z,7.40
2019-05-19T09:28:39.269Z,6.90
2019-05-19T09:34:23.081Z,6.00
2019-05-19T09:37:11.743Z,4.40
2019-05-19T09:40:00.560Z,5.50
2019-05-19T09:42:49.223Z,5.70
2019-05-19T09:51:45.833Z,4.20
2019-05-19T09:54:26.994Z,4.30
2019-05-19T09:57:08.460Z,4.30
2019-05-19T09:59:49.942Z,4.50
2019-05-19T10:02:31.268Z,3.60
2019-05-19T10:05:11.286Z,3.50
2019-05-19T10:07:59.846Z,3.30
2019-05-19T10:11:26.390Z,3.10
2019-05-19T10:17:08.828Z,2.50
2019-05-19T10:19:57.484Z,3.00
2019-05-19T10:22:52.999Z,1.40
2019-05-19T10:25:41.705Z,1.00
2019-05-19T10:28:42.309Z,1.80
2019-05-19T10:31:20.959Z,1.40
2019-05-19T10:34:24.118Z,2.40
2019-05-19T10:37:12.092Z,2.70
2019-05-19T10:39:50.941Z,1.00
2019-05-19T10:42:39.560Z,1.90
2019-05-19T10:45:28.230Z,2.00
2019-05-19T10:48:16.917Z,2.60
2019-05-19T10:51:05.586Z,2.80
2019-05-19T10:56:56.716Z,1.60
2019-05-19T10:59:38.259Z,1.00
2019-05-19T11:02:19.955Z,1.40
2019-05-19T11:05:01.421Z,1.70
2019-05-19T11:07:42.359Z,1.00
2019-05-19T11:10:23.768Z,1.50
2019-05-19T11:13:04.524Z,1.10
2019-05-19T11:15:46.073Z,1.70
2019-05-19T11:18:27.707Z,2.30
2019-05-19T11:21:08.977Z,1.10
2019-05-19T11:23:49.787Z,1.10
2019-05-19T11:26:31.264Z,1.00
2019-05-19T11:29:12.444Z,1.00
2019-05-19T11:31:53.806Z,1.00
2019-05-19T11:34:35.368Z,1.00
2019-05-19T11:37:16.664Z,1.00
2019-05-19T11:39:58.510Z,1.00
2019-05-19T11:42:39.368Z,1.00
2019-05-19T11:45:20.921Z,1.00
2019-05-19T11:48:01.660Z,1.00
2019-05-19T11:50:43.029Z,1.00
2019-05-19T11:53:24.469Z,1.00
2019-05-19T11:56:08.085Z,1.00
2019-05-19T11:58:48.885Z,1.00
2019-05-19T12:01:30.273Z,1.00
2019-05-19T12:04:11.882Z,1.00
2019-05-19T12:06:52.733Z,1.00
2019-05-19T12:09:34.287Z,1.00
2019-05-19T12:12:15.659Z,1.00
2019-05-19T12:14:57.286Z,1.20
2019-05-19T12:17:38.458Z,1.00
2019-05-19T12:20:19.991Z,1.00
2019-05-19T12:23:01.544Z,1.00
2019-05-19T12:25:43.217Z,1.00
2019-05-19T12:28:24.532Z,1.00
2019-05-19T12:31:05.846Z,1.00
2019-05-19T12:33:52.007Z,1.00
2019-05-19T12:36:29.802Z,1.00
2019-05-19T12:39:11.180Z,1.00
2019-05-19T12:41:52.350Z,1.00
2019-05-19T12:44:33.568Z,1.00
2019-05-19T12:47:14.780Z,1.00
2019-05-19T12:49:55.641Z,1.00
2019-05-19T12:52:37.304Z,1.00
2019-05-19T12:55:19.305Z,1.00
2019-05-19T12:58:00.591Z,1.00
2019-05-19T13:00:41.313Z,1.00
2019-05-19T13:03:22.848Z,1.00
2019-05-19T13:06:04.345Z,1.00
2019-05-19T13:08:45.275Z,1.00
2019-05-19T13:11:26.057Z,1.00
2019-05-19T13:14:05.921Z,1.00
2019-05-19T13:17:08.694Z,1.00
2019-05-19T13:22:40.361Z,1.00
2019-05-19T13:25:40.724Z,1.00
2019-05-19T13:37:22.593Z,1.00
2019-05-19T13:40:11.564Z,1.00
2019-05-19T13:43:00.202Z,1.00
2019-05-19T13:45:48.792Z,1.00
2019-05-19T13:48:37.516Z,1.00
2019-05-19T13:51:26.142Z,1.00
2019-05-19T13:57:11.806Z,1.00
2019-05-19T13:59:45.440Z,1.00
2019-05-19T14:02:25.428Z,1.00
2019-05-19T14:17:13.293Z,1.00
2019-05-19T14:19:49.717Z,1.00
2019-05-19T14:22:38.372Z,1.00
2019-05-19T14:28:25.891Z,2.00
2019-05-19T14:34:23.699Z,2.50
2019-05-19T14:37:24.097Z,2.50
2019-05-19T14:43:17.020Z,3.60
2019-05-19T14:46:05.770Z,4.20
2019-05-19T14:48:54.400Z,3.50
2019-05-19T14:51:43.892Z,3.30
2019-05-19T14:57:44.538Z,4.00
2019-05-19T15:00:17.652Z,5.90
2019-05-19T15:02:58.883Z,5.90
2019-05-19T15:05:40.642Z,6.20
2019-05-19T15:08:22.059Z,7.60
2019-05-19T15:11:03.710Z,7.80
2019-05-19T15:13:45.186Z,8.10
2019-05-19T15:16:26.500Z,8.30
2019-05-19T15:19:07.853Z,8.30
2019-05-19T15:21:49.560Z,9.50
2019-05-19T15:24:30.737Z,9.10
2019-05-19T15:27:12.136Z,9.50
2019-05-19T15:29:53.674Z,9.80
2019-05-19T15:32:35.239Z,10.10
2019-05-19T15:35:16.236Z,10.50
2019-05-19T15:37:57.175Z,10.60
2019-05-19T15:40:38.615Z,10.10
2019-05-19T15:43:18.371Z,10.00
2019-05-19T15:46:18.754Z,10.30
2019-05-19T15:54:54.812Z,9.20
2019-05-19T15:57:36.329Z,8.20
2019-05-19T16:00:17.817Z,8.40
2019-05-19T16:02:58.929Z,7.60
2019-05-19T16:05:40.499Z,7.90
2019-05-19T16:08:21.542Z,8.20
2019-05-19T16:11:02.918Z,8.20
2019-05-19T16:13:44.039Z,8.20
2019-05-19T16:16:25.478Z,8.30
2019-05-19T16:19:06.702Z,8.50
2019-05-19T16:21:48.011Z,8.70
2019-05-19T16:24:29.488Z,9.00
2019-05-19T16:27:12.798Z,9.00
2019-05-19T16:29:53.522Z,8.80
2019-05-19T16:32:35.201Z,8.50
2019-05-19T16:35:16.604Z,8.70
2019-05-19T16:37:58.239Z,8.60
2019-05-19T16:40:39.709Z,8.80
2019-05-19T16:43:21.034Z,8.60
2019-05-19T16:46:02.656Z,8.80
2019-05-19T16:48:43.848Z,8.90
2019-05-19T16:51:25.305Z,9.20
2019-05-19T16:54:11.128Z,8.50
2019-05-19T16:56:52.471Z,7.60
2019-05-19T16:59:34.194Z,7.60
2019-05-19T17:02:15.750Z,6.80
2019-05-19T17:04:57.375Z,6.80
2019-05-19T17:07:38.948Z,6.50
2019-05-19T17:10:20.114Z,5.80
2019-05-19T17:13:00.890Z,5.60
2019-05-19T17:15:42.200Z,4.60
2019-05-19T17:18:21.949Z,4.50
2019-05-19T17:24:05.917Z,4.20
2019-05-19T17:26:54.508Z,4.10
2019-05-19T17:29:43.117Z,3.60
2019-05-19T17:32:31.693Z,3.30
2019-05-19T17:41:22.201Z,2.90
2019-05-19T17:44:14.752Z,2.10
2019-05-19T17:49:46.597Z,1.00
2019-05-19T18:02:13.435Z,1.00
2019-05-19T18:05:03.803Z,1.00
2019-05-19T18:07:40.257Z,1.00
2019-05-19T18:10:28.862Z,1.00
2019-05-19T18:13:29.146Z,1.00
2019-05-19T18:16:19.427Z,1.00
2019-05-19T18:21:53.414Z,2.00
2019-05-19T18:24:42.025Z,2.80
2019-05-19T18:27:30.616Z,3.70
2019-05-19T18:36:17.577Z,7.00
2019-05-19T18:39:06.298Z,7.20
2019-05-19T18:44:50.483Z,8.50
2019-05-19T18:50:38.169Z,9.40
2019-05-19T18:53:38.588Z,10.00
2019-05-19T18:56:31.336Z,9.50
2019-05-19T18:59:19.465Z,8.40
2019-05-19T19:16:55.006Z,9.00
2019-05-19T19:22:30.065Z,10.10
2019-05-19T19:28:14.333Z,11.70
2019-05-19T19:31:02.952Z,12.40
2019-05-19T19:33:51.615Z,12.80
2019-05-19T19:36:40.305Z,12.80
2019-05-19T19:39:29.301Z,13.40
2019-05-19T19:51:21.141Z,14.70
2019-05-19T19:54:09.825Z,14.90
2019-05-19T19:56:49.563Z,15.00
2019-05-19T20:02:33.934Z,14.80
2019-05-19T20:05:22.588Z,14.70
2019-05-19T20:08:11.164Z,14.90
2019-05-19T20:10:59.820Z,14.90
2019-05-19T20:14:02.499Z,15.00
2019-05-19T20:16:38.933Z,15.20
2019-05-19T20:19:41.616Z,15.40
2019-05-19T20:22:17.914Z,15.40
2019-05-19T20:25:06.657Z,15.30
2019-05-19T20:33:45.761Z,16.30
2019-05-19T20:36:46.455Z,16.40
2019-05-19T20:39:24.828Z,16.50
2019-05-19T20:42:27.432Z,16.50
2019-05-19T20:45:15.818Z,16.70
2019-05-19T20:47:54.668Z,17.00
2019-05-19T20:50:43.369Z,18.10
2019-05-19T20:53:32.072Z,18.30
2019-05-19T21:11:29.565Z,20.80
2019-05-19T21:14:20.439Z,21.40
2019-05-19T21:16:58.879Z,22.40
2019-05-19T21:19:47.571Z,22.50
2019-05-19T21:25:45.323Z,24.40
2019-05-19T21:28:48.180Z,25.50
2019-05-19T21:37:26.226Z,26.50
2019-05-19T21:52:34.544Z,28.10
2019-05-19T21:55:26.816Z,28.10
2019-05-19T21:57:55.483Z,28.00
2019-05-19T22:00:36.904Z,28.70
2019-05-19T22:03:18.333Z,29.80
2019-05-19T22:05:59.623Z,29.80
2019-05-19T22:08:40.717Z,29.80
2019-05-19T22:11:22.208Z,30.00
2019-05-19T22:14:03.891Z,29.90
2019-05-19T22:16:45.452Z,31.40
2019-05-19T22:19:26.834Z,31.30
2019-05-19T22:22:08.184Z,31.30
2019-05-19T22:24:49.786Z,32.10
2019-05-19T22:27:30.996Z,33.50
2019-05-19T22:30:11.808Z,34.40
2019-05-19T22:32:53.692Z,34.20
2019-05-19T22:35:34.766Z,34.30
2019-05-19T22:38:16.143Z,34.00
2019-05-19T22:40:57.691Z,34.20
2019-05-19T22:43:39.014Z,34.20
2019-05-19T22:46:20.327Z,34.20
2019-05-19T22:49:01.144Z,34.60
2019-05-19T22:51:42.642Z,34.30
2019-05-19T22:54:24.524Z,34.20
2019-05-19T22:57:05.580Z,33.80
2019-05-19T22:59:43.113Z,34.10
2019-05-19T23:05:39.054Z,34.10
2019-05-19T23:08:31.864Z,34.10
2019-05-19T23:14:14.929Z,34.40
2019-05-19T23:16:53.650Z,34.90
2019-05-19T23:19:42.332Z,35.10
2019-05-19T23:22:30.946Z,35.20
2019-05-19T23:37:15.203Z,35.60
2019-05-19T23:40:17.950Z,35.70
2019-05-19T23:49:02.573Z,37.10
2019-05-19T23:51:51.260Z,37.60
2019-05-19T23:54:39.965Z,38.10
2019-05-19T23:57:21.552Z,38.30
